sensor_id;sensor_type;location;lat;lon;timestamp;P1;P2;P0
55304;PMS7003;65692;51.378;19.824;2023-04-23T01:04:00;39.25;34.75;26.00
55304;PMS7003;65692;51.378;19.824;2023-04-23T01:12:39;41.00;36.25;26.00
55304;PMS7003;65692;51.378;19.824;2023-04-23T01:15:23;41.25;38.25;27.75
55304;PMS7003;65692;51.378;19.824;2023-04-23T01:23:21;45.50;32.75;26.00
55304;PMS7003;65692;51.378;19.824;2023-04-23T01:29:51;41.50;36.25;26.50
55304;PMS7003;65692;51.378;19.824;2023-04-23T01:33:09;42.50;37.50;25.75
55304;PMS7003;65692;51.378;19.824;2023-04-23T01:38:52;47.00;39.50;28.00
55304;PMS7003;65692;51.378;19.824;2023-04-23T01:41:48;42.25;36.00;26.50
55304;PMS7003;65692;51.378;19.824;2023-04-23T02:09:08;39.00;30.25;24.00
55304;PMS7003;65692;51.378;19.824;2023-04-23T02:12:15;49.75;37.75;26.75
55304;PMS7003;65692;51.378;19.824;2023-04-23T02:14:52;44.75;35.75;27.25
55304;PMS7003;65692;51.378;19.824;2023-04-23T02:17:52;51.25;41.25;29.50
55304;PMS7003;65692;51.378;19.824;2023-04-23T02:20:59;52.75;39.75;29.00
55304;PMS7003;65692;51.378;19.824;2023-04-23T02:23:37;54.50;42.50;28.75
55304;PMS7003;65692;51.378;19.824;2023-04-23T02:26:07;48.75;42.00;30.25
55304;PMS7003;65692;51.378;19.824;2023-04-23T02:29:03;51.25;41.00;30.00
55304;PMS7003;65692;51.378;19.824;2023-04-23T02:31:34;45.00;38.00;26.75
55304;PMS7003;65692;51.378;19.824;2023-04-23T02:34:26;49.00;38.50;27.00
55304;PMS7003;65692;51.378;19.824;2023-04-23T02:37:19;47.00;40.25;28.00
55304;PMS7003;65692;51.378;19.824;2023-04-23T02:40:10;49.50;41.50;30.00
55304;PMS7003;65692;51.378;19.824;2023-04-23T02:42:48;47.75;38.00;26.25
55304;PMS7003;65692;51.378;19.824;2023-04-23T02:45:20;38.75;34.25;25.00
55304;PMS7003;65692;51.378;19.824;2023-04-23T02:47:59;42.50;36.75;26.25
55304;PMS7003;65692;51.378;19.824;2023-04-23T02:50:32;43.00;34.50;27.00
55304;PMS7003;65692;51.378;19.824;2023-04-23T02:53:13;41.25;33.75;26.75
55304;PMS7003;65692;51.378;19.824;2023-04-23T02:55:55;46.50;37.75;27.00
55304;PMS7003;65692;51.378;19.824;2023-04-23T02:58:24;44.75;40.00;27.00
55304;PMS7003;65692;51.378;19.824;2023-04-23T03:01:07;45.75;37.25;26.00
55304;PMS7003;65692;51.378;19.824;2023-04-23T03:03:38;52.75;39.75;27.00
55304;PMS7003;65692;51.378;19.824;2023-04-23T03:06:07;39.50;39.50;27.25
55304;PMS7003;65692;51.378;19.824;2023-04-23T03:08:38;39.75;38.00;27.25
55304;PMS7003;65692;51.378;19.824;2023-04-23T03:11:10;42.25;39.50;27.00
55304;PMS7003;65692;51.378;19.824;2023-04-23T03:13:53;46.00;40.75;27.00
55304;PMS7003;65692;51.378;19.824;2023-04-23T03:16:20;42.00;39.25;28.75
55304;PMS7003;65692;51.378;19.824;2023-04-23T03:18:52;43.00;38.50;24.50
55304;PMS7003;65692;51.378;19.824;2023-04-23T03:21:35;45.75;41.50;28.50
55304;PMS7003;65692;51.378;19.824;2023-04-23T03:24:06;45.50;39.75;29.50
55304;PMS7003;65692;51.378;19.824;2023-04-23T03:26:36;50.25;40.00;28.50
55304;PMS7003;65692;51.378;19.824;2023-04-23T03:29:08;48.00;40.75;29.00
55304;PMS7003;65692;51.378;19.824;2023-04-23T03:31:38;46.25;40.25;28.00
55304;PMS7003;65692;51.378;19.824;2023-04-23T03:34:09;41.50;39.50;26.25
55304;PMS7003;65692;51.378;19.824;2023-04-23T03:36:43;59.00;43.25;28.25
55304;PMS7003;65692;51.378;19.824;2023-04-23T03:39:12;52.75;41.75;29.00
55304;PMS7003;65692;51.378;19.824;2023-04-23T03:41:50;46.00;36.50;27.50
55304;PMS7003;65692;51.378;19.824;2023-04-23T03:44:18;46.75;38.25;24.75
55304;PMS7003;65692;51.378;19.824;2023-04-23T03:46:48;47.00;38.00;27.25
55304;PMS7003;65692;51.378;19.824;2023-04-23T03:49:17;56.00;46.00;31.00
55304;PMS7003;65692;51.378;19.824;2023-04-23T03:54:10;59.00;42.60;30.40
55304;PMS7003;65692;51.378;19.824;2023-04-23T03:56:55;45.00;38.75;29.50
55304;PMS7003;65692;51.378;19.824;2023-04-23T03:59:24;57.50;46.25;31.25
55304;PMS7003;65692;51.378;19.824;2023-04-23T04:32:10;49.75;40.00;27.25
55304;PMS7003;65692;51.378;19.824;2023-04-23T04:46:36;67.75;47.75;32.25
55304;PMS7003;65692;51.378;19.824;2023-04-23T05:07:19;44.75;36.75;25.50
55304;PMS7003;65692;51.378;19.824;2023-04-23T05:09:46;44.00;37.00;25.00
55304;PMS7003;65692;51.378;19.824;2023-04-23T05:12:12;50.33;38.33;27.00
55304;PMS7003;65692;51.378;19.824;2023-04-23T05:14:38;43.33;37.67;28.00
55304;PMS7003;65692;51.378;19.824;2023-04-23T05:17:05;46.00;36.67;26.67
55304;PMS7003;65692;51.378;19.824;2023-04-23T05:19:32;41.33;33.67;24.00
55304;PMS7003;65692;51.378;19.824;2023-04-23T05:21:58;43.67;37.00;24.33
55304;PMS7003;65692;51.378;19.824;2023-04-23T05:24:25;37.67;34.00;26.00
55304;PMS7003;65692;51.378;19.824;2023-04-23T05:26:51;46.00;35.00;24.00
55304;PMS7003;65692;51.378;19.824;2023-04-23T05:29:18;42.25;33.75;24.00
55304;PMS7003;65692;51.378;19.824;2023-04-23T05:31:44;34.50;30.00;22.75
55304;PMS7003;65692;51.378;19.824;2023-04-23T05:34:11;38.67;33.33;23.33
55304;PMS7003;65692;51.378;19.824;2023-04-23T05:36:38;35.00;31.25;22.50
55304;PMS7003;65692;51.378;19.824;2023-04-23T05:39:05;29.50;25.50;16.25
55304;PMS7003;65692;51.378;19.824;2023-04-23T05:41:31;32.50;30.50;23.00
55304;PMS7003;65692;51.378;19.824;2023-04-23T05:43:58;28.75;26.25;20.25
55304;PMS7003;65692;51.378;19.824;2023-04-23T05:46:24;29.25;28.25;21.50
55304;PMS7003;65692;51.378;19.824;2023-04-23T05:48:51;37.50;30.25;23.00
55304;PMS7003;65692;51.378;19.824;2023-04-23T05:51:18;72.50;56.25;35.50
55304;PMS7003;65692;51.378;19.824;2023-04-23T05:53:45;58.67;43.00;27.00
55304;PMS7003;65692;51.378;19.824;2023-04-23T05:56:11;54.33;44.00;30.00
55304;PMS7003;65692;51.378;19.824;2023-04-23T05:58:38;62.00;47.25;31.50
55304;PMS7003;65692;51.378;19.824;2023-04-23T06:01:04;44.33;40.00;29.67
55304;PMS7003;65692;51.378;19.824;2023-04-23T06:03:31;48.67;40.00;27.33
55304;PMS7003;65692;51.378;19.824;2023-04-23T06:05:58;33.25;30.25;21.25
55304;PMS7003;65692;51.378;19.824;2023-04-23T06:08:24;33.00;28.25;20.75
55304;PMS7003;65692;51.378;19.824;2023-04-23T06:10:51;30.25;24.75;21.75
55304;PMS7003;65692;51.378;19.824;2023-04-23T06:13:17;34.00;30.25;23.00
55304;PMS7003;65692;51.378;19.824;2023-04-23T06:15:44;40.00;36.00;25.75
55304;PMS7003;65692;51.378;19.824;2023-04-23T06:18:10;36.75;30.25;21.00
55304;PMS7003;65692;51.378;19.824;2023-04-23T06:20:37;30.75;26.75;21.00
55304;PMS7003;65692;51.378;19.824;2023-04-23T06:23:03;30.75;28.50;21.75
55304;PMS7003;65692;51.378;19.824;2023-04-23T06:25:30;32.50;30.50;22.50
55304;PMS7003;65692;51.378;19.824;2023-04-23T06:27:56;34.50;31.75;22.50
55304;PMS7003;65692;51.378;19.824;2023-04-23T06:30:23;33.67;25.33;20.00
55304;PMS7003;65692;51.378;19.824;2023-04-23T06:32:49;39.00;32.75;23.00
55304;PMS7003;65692;51.378;19.824;2023-04-23T06:35:16;29.50;27.00;20.75
55304;PMS7003;65692;51.378;19.824;2023-04-23T06:37:43;33.50;31.00;22.75
55304;PMS7003;65692;51.378;19.824;2023-04-23T06:40:09;29.75;29.25;21.00
55304;PMS7003;65692;51.378;19.824;2023-04-23T06:42:36;26.75;25.25;21.00
55304;PMS7003;65692;51.378;19.824;2023-04-23T06:45:03;26.00;25.25;19.50
55304;PMS7003;65692;51.378;19.824;2023-04-23T06:47:31;32.25;28.00;21.00
55304;PMS7003;65692;51.378;19.824;2023-04-23T06:49:58;28.25;25.50;18.25
55304;PMS7003;65692;51.378;19.824;2023-04-23T06:52:27;28.50;25.00;17.50
55304;PMS7003;65692;51.378;19.824;2023-04-23T06:54:53;25.00;25.00;19.75
55304;PMS7003;65692;51.378;19.824;2023-04-23T06:57:20;26.00;21.50;15.25
55304;PMS7003;65692;51.378;19.824;2023-04-23T06:59:47;24.25;23.00;17.25
55304;PMS7003;65692;51.378;19.824;2023-04-23T07:02:13;25.25;22.00;17.25
55304;PMS7003;65692;51.378;19.824;2023-04-23T07:04:39;25.25;23.75;18.25
55304;PMS7003;65692;51.378;19.824;2023-04-23T07:07:07;26.00;21.25;16.25
55304;PMS7003;65692;51.378;19.824;2023-04-23T07:09:33;28.00;23.25;17.75
55304;PMS7003;65692;51.378;19.824;2023-04-23T07:12:00;26.00;24.50;19.50
55304;PMS7003;65692;51.378;19.824;2023-04-23T07:14:27;24.00;23.00;18.50
55304;PMS7003;65692;51.378;19.824;2023-04-23T07:16:53;27.25;25.75;21.00
55304;PMS7003;65692;51.378;19.824;2023-04-23T07:19:20;29.25;27.00;18.25
55304;PMS7003;65692;51.378;19.824;2023-04-23T07:21:46;19.75;15.25;12.00
55304;PMS7003;65692;51.378;19.824;2023-04-23T07:24:13;26.00;24.25;18.00
55304;PMS7003;65692;51.378;19.824;2023-04-23T07:26:39;23.75;21.25;16.00
55304;PMS7003;65692;51.378;19.824;2023-04-23T07:29:06;22.50;20.75;16.00
55304;PMS7003;65692;51.378;19.824;2023-04-23T07:31:33;43.50;35.75;25.00
55304;PMS7003;65692;51.378;19.824;2023-04-23T07:33:59;37.25;32.50;22.25
55304;PMS7003;65692;51.378;19.824;2023-04-23T07:36:26;30.00;29.50;21.25
55304;PMS7003;65692;51.378;19.824;2023-04-23T07:38:53;28.75;26.75;20.50
55304;PMS7003;65692;51.378;19.824;2023-04-23T07:41:19;27.75;24.75;18.00
55304;PMS7003;65692;51.378;19.824;2023-04-23T07:43:46;24.00;20.50;15.75
55304;PMS7003;65692;51.378;19.824;2023-04-23T07:46:12;27.50;21.50;15.00
55304;PMS7003;65692;51.378;19.824;2023-04-23T07:48:40;21.75;20.75;17.00
55304;PMS7003;65692;51.378;19.824;2023-04-23T07:51:07;21.50;21.50;18.75
55304;PMS7003;65692;51.378;19.824;2023-04-23T07:53:33;25.50;23.50;17.75
55304;PMS7003;65692;51.378;19.824;2023-04-23T07:56:00;26.25;23.75;18.00
55304;PMS7003;65692;51.378;19.824;2023-04-23T07:58:26;22.25;22.00;17.00
55304;PMS7003;65692;51.378;19.824;2023-04-23T08:00:53;18.00;16.75;12.25
55304;PMS7003;65692;51.378;19.824;2023-04-23T08:03:19;22.50;19.75;15.50
55304;PMS7003;65692;51.378;19.824;2023-04-23T08:05:47;25.25;21.75;17.00
55304;PMS7003;65692;51.378;19.824;2023-04-23T08:08:13;32.50;29.25;21.00
55304;PMS7003;65692;51.378;19.824;2023-04-23T08:10:39;26.50;22.75;17.75
55304;PMS7003;65692;51.378;19.824;2023-04-23T08:13:06;22.00;21.00;16.00
55304;PMS7003;65692;51.378;19.824;2023-04-23T08:15:33;19.00;18.00;13.25
55304;PMS7003;65692;51.378;19.824;2023-04-23T08:17:59;22.75;22.75;18.25
55304;PMS7003;65692;51.378;19.824;2023-04-23T08:20:26;18.25;18.25;12.00
55304;PMS7003;65692;51.378;19.824;2023-04-23T08:22:52;22.75;18.50;14.75
55304;PMS7003;65692;51.378;19.824;2023-04-23T08:25:19;16.00;16.00;14.25
55304;PMS7003;65692;51.378;19.824;2023-04-23T08:27:46;18.25;15.25;12.25
55304;PMS7003;65692;51.378;19.824;2023-04-23T08:30:12;16.25;14.00;11.25
55304;PMS7003;65692;51.378;19.824;2023-04-23T08:32:39;22.00;19.75;15.75
55304;PMS7003;65692;51.378;19.824;2023-04-23T08:35:06;20.50;19.25;14.25
55304;PMS7003;65692;51.378;19.824;2023-04-23T08:37:33;16.00;16.00;14.25
55304;PMS7003;65692;51.378;19.824;2023-04-23T08:40:00;16.50;16.50;14.00
55304;PMS7003;65692;51.378;19.824;2023-04-23T08:42:31;17.25;13.75;10.50
55304;PMS7003;65692;51.378;19.824;2023-04-23T08:45:02;19.75;17.50;14.25
55304;PMS7003;65692;51.378;19.824;2023-04-23T08:47:28;16.75;16.75;14.50
55304;PMS7003;65692;51.378;19.824;2023-04-23T08:49:55;21.75;18.00;13.50
55304;PMS7003;65692;51.378;19.824;2023-04-23T08:52:25;19.25;16.50;13.00
55304;PMS7003;65692;51.378;19.824;2023-04-23T08:54:52;16.50;16.50;14.25
55304;PMS7003;65692;51.378;19.824;2023-04-23T08:57:18;16.50;15.50;12.25
55304;PMS7003;65692;51.378;19.824;2023-04-23T08:59:45;18.25;16.50;13.75
55304;PMS7003;65692;51.378;19.824;2023-04-23T09:02:12;17.00;15.75;12.75
55304;PMS7003;65692;51.378;19.824;2023-04-23T09:04:41;16.25;15.25;11.75
55304;PMS7003;65692;51.378;19.824;2023-04-23T09:07:07;14.00;14.00;12.00
55304;PMS7003;65692;51.378;19.824;2023-04-23T09:09:37;17.25;14.50;11.50
55304;PMS7003;65692;51.378;19.824;2023-04-23T09:12:07;16.50;14.00;13.00
55304;PMS7003;65692;51.378;19.824;2023-04-23T09:14:34;12.00;12.00;9.75
55304;PMS7003;65692;51.378;19.824;2023-04-23T09:17:01;15.50;14.00;11.75
55304;PMS7003;65692;51.378;19.824;2023-04-23T09:19:28;17.00;16.25;13.25
55304;PMS7003;65692;51.378;19.824;2023-04-23T09:21:56;13.75;13.75;12.00
55304;PMS7003;65692;51.378;19.824;2023-04-23T09:24:23;14.25;14.25;11.50
55304;PMS7003;65692;51.378;19.824;2023-04-23T09:26:50;13.25;12.25;10.00
55304;PMS7003;65692;51.378;19.824;2023-04-23T09:29:18;19.75;17.25;12.25
55304;PMS7003;65692;51.378;19.824;2023-04-23T09:31:45;12.75;12.75;10.00
55304;PMS7003;65692;51.378;19.824;2023-04-23T09:34:19;14.25;12.00;10.00
55304;PMS7003;65692;51.378;19.824;2023-04-23T09:36:49;11.75;10.75;8.75
55304;PMS7003;65692;51.378;19.824;2023-04-23T09:39:17;15.25;15.25;10.75
55304;PMS7003;65692;51.378;19.824;2023-04-23T09:41:43;7.50;7.50;6.50
55304;PMS7003;65692;51.378;19.824;2023-04-23T09:44:16;13.75;13.00;9.25
55304;PMS7003;65692;51.378;19.824;2023-04-23T09:46:43;11.25;10.50;8.00
55304;PMS7003;65692;51.378;19.824;2023-04-23T09:49:10;12.25;11.75;9.00
55304;PMS7003;65692;51.378;19.824;2023-04-23T09:51:46;16.00;12.75;11.00
55304;PMS7003;65692;51.378;19.824;2023-04-23T09:54:20;14.75;13.50;10.25
55304;PMS7003;65692;51.378;19.824;2023-04-23T09:56:48;12.25;11.00;9.75
55304;PMS7003;65692;51.378;19.824;2023-04-23T09:59:25;10.75;10.75;8.00
55304;PMS7003;65692;51.378;19.824;2023-04-23T10:02:11;15.00;11.75;9.25
55304;PMS7003;65692;51.378;19.824;2023-04-23T10:04:38;11.25;11.25;8.25
55304;PMS7003;65692;51.378;19.824;2023-04-23T10:07:05;10.75;10.75;8.75
55304;PMS7003;65692;51.378;19.824;2023-04-23T10:09:45;13.25;12.75;10.00
55304;PMS7003;65692;51.378;19.824;2023-04-23T10:12:12;10.25;10.25;8.75
55304;PMS7003;65692;51.378;19.824;2023-04-23T10:14:59;14.00;12.75;10.50
55304;PMS7003;65692;51.378;19.824;2023-04-23T10:17:25;13.50;12.25;10.00
55304;PMS7003;65692;51.378;19.824;2023-04-23T10:19:52;11.00;10.75;9.75
55304;PMS7003;65692;51.378;19.824;2023-04-23T10:22:20;12.00;11.75;10.25
55304;PMS7003;65692;51.378;19.824;2023-04-23T10:24:50;13.00;13.00;9.75
55304;PMS7003;65692;51.378;19.824;2023-04-23T10:27:17;11.75;10.00;8.50
55304;PMS7003;65692;51.378;19.824;2023-04-23T10:29:47;13.25;13.25;10.50
55304;PMS7003;65692;51.378;19.824;2023-04-23T10:32:14;14.00;9.25;8.00
55304;PMS7003;65692;51.378;19.824;2023-04-23T10:34:41;14.25;12.75;10.75
55304;PMS7003;65692;51.378;19.824;2023-04-23T10:37:07;14.75;13.50;10.00
55304;PMS7003;65692;51.378;19.824;2023-04-23T10:39:34;14.25;13.00;10.50
55304;PMS7003;65692;51.378;19.824;2023-04-23T10:42:01;16.25;14.00;10.00
55304;PMS7003;65692;51.378;19.824;2023-04-23T10:44:31;11.00;11.00;9.00
55304;PMS7003;65692;51.378;19.824;2023-04-23T10:47:16;11.25;11.25;8.75
55304;PMS7003;65692;51.378;19.824;2023-04-23T10:49:42;12.25;12.25;9.75
55304;PMS7003;65692;51.378;19.824;2023-04-23T10:52:11;13.75;13.75;10.00
55304;PMS7003;65692;51.378;19.824;2023-04-23T10:54:55;14.25;13.50;11.50
55304;PMS7003;65692;51.378;19.824;2023-04-23T10:57:22;16.00;14.25;10.75
55304;PMS7003;65692;51.378;19.824;2023-04-23T10:59:52;14.50;13.25;11.00
55304;PMS7003;65692;51.378;19.824;2023-04-23T11:02:19;15.00;15.00;13.00
55304;PMS7003;65692;51.378;19.824;2023-04-23T11:04:55;15.00;14.00;12.75
55304;PMS7003;65692;51.378;19.824;2023-04-23T11:07:29;16.00;14.00;12.75
55304;PMS7003;65692;51.378;19.824;2023-04-23T11:09:57;15.00;13.75;12.50
55304;PMS7003;65692;51.378;19.824;2023-04-23T11:14:52;17.25;15.00;12.50
55304;PMS7003;65692;51.378;19.824;2023-04-23T11:17:21;12.25;12.25;11.00
55304;PMS7003;65692;51.378;19.824;2023-04-23T11:22:35;15.75;15.25;12.50
55304;PMS7003;65692;51.378;19.824;2023-04-23T11:25:02;18.50;14.75;11.75
55304;PMS7003;65692;51.378;19.824;2023-04-23T11:27:29;16.25;13.50;10.75
55304;PMS7003;65692;51.378;19.824;2023-04-23T11:29:56;14.25;13.25;11.00
55304;PMS7003;65692;51.378;19.824;2023-04-23T11:32:25;16.50;14.50;11.00
55304;PMS7003;65692;51.378;19.824;2023-04-23T11:34:53;15.50;14.75;11.25
55304;PMS7003;65692;51.378;19.824;2023-04-23T11:37:20;16.75;16.00;12.75
55304;PMS7003;65692;51.378;19.824;2023-04-23T11:39:46;14.75;14.75;11.00
55304;PMS7003;65692;51.378;19.824;2023-04-23T11:42:14;15.00;14.75;11.75
55304;PMS7003;65692;51.378;19.824;2023-04-23T11:44:42;13.75;12.50;11.00
55304;PMS7003;65692;51.378;19.824;2023-04-23T11:47:11;11.25;11.25;9.00
55304;PMS7003;65692;51.378;19.824;2023-04-23T11:49:39;12.00;12.00;9.75
55304;PMS7003;65692;51.378;19.824;2023-04-23T11:52:06;12.75;12.75;10.25
55304;PMS7003;65692;51.378;19.824;2023-04-23T11:54:33;14.75;13.25;11.25
55304;PMS7003;65692;51.378;19.824;2023-04-23T11:56:59;13.25;12.25;9.50
55304;PMS7003;65692;51.378;19.824;2023-04-23T11:59:27;11.00;11.00;8.50
55304;PMS7003;65692;51.378;19.824;2023-04-23T12:01:54;12.50;12.00;10.00
55304;PMS7003;65692;51.378;19.824;2023-04-23T12:04:22;10.00;8.00;6.00
55304;PMS7003;65692;51.378;19.824;2023-04-23T12:06:49;11.25;10.50;7.50
55304;PMS7003;65692;51.378;19.824;2023-04-23T12:09:17;11.00;11.00;9.25
55304;PMS7003;65692;51.378;19.824;2023-04-23T12:11:43;10.75;10.75;7.00
55304;PMS7003;65692;51.378;19.824;2023-04-23T12:14:11;15.00;15.00;10.75
55304;PMS7003;65692;51.378;19.824;2023-04-23T12:16:39;13.25;10.25;9.00
55304;PMS7003;65692;51.378;19.824;2023-04-23T12:19:11;12.00;12.00;10.50
55304;PMS7003;65692;51.378;19.824;2023-04-23T12:21:51;13.25;13.25;9.00
55304;PMS7003;65692;51.378;19.824;2023-04-23T12:24:25;11.00;10.50;8.75
55304;PMS7003;65692;51.378;19.824;2023-04-23T12:26:52;10.50;9.00;8.25
55304;PMS7003;65692;51.378;19.824;2023-04-23T12:29:23;10.00;8.00;7.25
55304;PMS7003;65692;51.378;19.824;2023-04-23T12:31:50;12.00;12.00;8.75
55304;PMS7003;65692;51.378;19.824;2023-04-23T12:34:18;12.75;10.75;8.00
55304;PMS7003;65692;51.378;19.824;2023-04-23T12:36:49;9.75;9.75;7.00
55304;PMS7003;65692;51.378;19.824;2023-04-23T12:41:52;13.50;11.25;9.25
55304;PMS7003;65692;51.378;19.824;2023-04-23T12:44:19;12.25;10.75;7.25
55304;PMS7003;65692;51.378;19.824;2023-04-23T12:46:52;14.00;12.50;9.50
55304;PMS7003;65692;51.378;19.824;2023-04-23T12:49:22;13.50;12.50;10.00
55304;PMS7003;65692;51.378;19.824;2023-04-23T12:51:48;10.25;10.00;9.00
55304;PMS7003;65692;51.378;19.824;2023-04-23T12:54:15;10.00;10.00;8.75
55304;PMS7003;65692;51.378;19.824;2023-04-23T12:56:41;8.75;8.75;7.00
55304;PMS7003;65692;51.378;19.824;2023-04-23T12:59:08;12.00;10.75;9.25
55304;PMS7003;65692;51.378;19.824;2023-04-23T13:01:34;13.50;12.00;8.75
55304;PMS7003;65692;51.378;19.824;2023-04-23T13:04:01;11.00;11.00;9.25
55304;PMS7003;65692;51.378;19.824;2023-04-23T13:06:27;11.25;8.75;8.00
55304;PMS7003;65692;51.378;19.824;2023-04-23T13:08:54;11.25;11.00;9.25
55304;PMS7003;65692;51.378;19.824;2023-04-23T13:11:21;12.50;10.25;9.00
55304;PMS7003;65692;51.378;19.824;2023-04-23T13:13:47;12.00;10.00;8.75
55304;PMS7003;65692;51.378;19.824;2023-04-23T13:16:14;10.75;9.25;8.00
55304;PMS7003;65692;51.378;19.824;2023-04-23T13:18:41;16.00;10.75;8.75
55304;PMS7003;65692;51.378;19.824;2023-04-23T13:21:08;10.25;9.50;7.75
55304;PMS7003;65692;51.378;19.824;2023-04-23T13:23:34;11.00;11.00;9.50
55304;PMS7003;65692;51.378;19.824;2023-04-23T13:26:02;13.00;12.25;10.25
55304;PMS7003;65692;51.378;19.824;2023-04-23T13:28:28;13.50;11.25;8.25
55304;PMS7003;65692;51.378;19.824;2023-04-23T13:30:55;10.00;8.50;6.75
55304;PMS7003;65692;51.378;19.824;2023-04-23T13:33:21;10.75;10.00;8.00
55304;PMS7003;65692;51.378;19.824;2023-04-23T13:35:47;10.75;10.25;8.00
55304;PMS7003;65692;51.378;19.824;2023-04-23T13:38:14;12.25;10.50;8.25
55304;PMS7003;65692;51.378;19.824;2023-04-23T13:40:40;9.50;9.50;7.75
55304;PMS7003;65692;51.378;19.824;2023-04-23T13:43:07;3.50;3.50;2.50
55304;PMS7003;65692;51.378;19.824;2023-04-23T13:45:33;12.25;9.00;7.00
55304;PMS7003;65692;51.378;19.824;2023-04-23T13:48:00;10.00;10.00;8.50
55304;PMS7003;65692;51.378;19.824;2023-04-23T13:50:27;12.25;10.00;8.75
55304;PMS7003;65692;51.378;19.824;2023-04-23T13:52:54;10.50;10.50;8.00
55304;PMS7003;65692;51.378;19.824;2023-04-23T13:55:20;7.25;7.25;7.00
55304;PMS7003;65692;51.378;19.824;2023-04-23T13:57:47;9.75;8.75;7.75
55304;PMS7003;65692;51.378;19.824;2023-04-23T14:00:13;11.25;10.00;9.00
55304;PMS7003;65692;51.378;19.824;2023-04-23T14:02:40;8.75;8.50;7.25
55304;PMS7003;65692;51.378;19.824;2023-04-23T14:05:07;7.75;7.75;5.25
55304;PMS7003;65692;51.378;19.824;2023-04-23T14:07:34;11.75;10.75;9.50
55304;PMS7003;65692;51.378;19.824;2023-04-23T14:10:01;9.75;9.75;8.25
55304;PMS7003;65692;51.378;19.824;2023-04-23T14:12:27;11.00;10.75;8.75
55304;PMS7003;65692;51.378;19.824;2023-04-23T14:14:54;11.50;9.00;8.00
55304;PMS7003;65692;51.378;19.824;2023-04-23T14:17:21;11.25;8.50;7.25
55304;PMS7003;65692;51.378;19.824;2023-04-23T14:19:48;9.50;8.50;7.25
55304;PMS7003;65692;51.378;19.824;2023-04-23T14:22:14;10.75;10.75;8.75
55304;PMS7003;65692;51.378;19.824;2023-04-23T14:24:44;9.75;9.00;7.50
55304;PMS7003;65692;51.378;19.824;2023-04-23T14:27:11;10.50;10.50;8.25
55304;PMS7003;65692;51.378;19.824;2023-04-23T14:32:10;10.50;10.00;7.50
55304;PMS7003;65692;51.378;19.824;2023-04-23T14:34:37;10.25;9.25;8.25
55304;PMS7003;65692;51.378;19.824;2023-04-23T14:37:04;8.00;8.00;6.50
55304;PMS7003;65692;51.378;19.824;2023-04-23T14:39:32;11.50;10.25;9.25
55304;PMS7003;65692;51.378;19.824;2023-04-23T14:41:58;7.50;6.50;5.75
55304;PMS7003;65692;51.378;19.824;2023-04-23T14:44:26;9.00;9.00;8.25
55304;PMS7003;65692;51.378;19.824;2023-04-23T14:46:52;11.50;11.25;9.00
55304;PMS7003;65692;51.378;19.824;2023-04-23T14:49:19;10.25;9.50;8.50
55304;PMS7003;65692;51.378;19.824;2023-04-23T14:51:49;8.75;8.50;7.50
55304;PMS7003;65692;51.378;19.824;2023-04-23T14:54:16;11.50;10.25;9.00
55304;PMS7003;65692;51.378;19.824;2023-04-23T14:56:42;6.75;6.75;6.00
55304;PMS7003;65692;51.378;19.824;2023-04-23T14:59:09;7.50;7.50;6.50
55304;PMS7003;65692;51.378;19.824;2023-04-23T15:01:35;10.00;9.75;8.00
55304;PMS7003;65692;51.378;19.824;2023-04-23T15:04:02;10.75;9.25;7.00
55304;PMS7003;65692;51.378;19.824;2023-04-23T15:06:28;9.25;9.00;7.50
55304;PMS7003;65692;51.378;19.824;2023-04-23T15:08:55;12.25;9.50;8.00
55304;PMS7003;65692;51.378;19.824;2023-04-23T15:11:21;12.75;9.75;8.25
55304;PMS7003;65692;51.378;19.824;2023-04-23T15:13:51;10.00;9.25;7.50
55304;PMS7003;65692;51.378;19.824;2023-04-23T15:16:24;14.50;12.25;9.00
55304;PMS7003;65692;51.378;19.824;2023-04-23T15:19:12;9.75;8.25;7.00
55304;PMS7003;65692;51.378;19.824;2023-04-23T15:21:39;7.75;7.75;7.00
55304;PMS7003;65692;51.378;19.824;2023-04-23T15:24:10;9.25;8.75;7.00
55304;PMS7003;65692;51.378;19.824;2023-04-23T15:26:36;12.25;10.00;8.50
55304;PMS7003;65692;51.378;19.824;2023-04-23T15:29:03;9.75;8.00;7.00
55304;PMS7003;65692;51.378;19.824;2023-04-23T15:31:30;11.50;9.00;7.00
55304;PMS7003;65692;51.378;19.824;2023-04-23T15:33:56;9.00;7.75;6.50
55304;PMS7003;65692;51.378;19.824;2023-04-23T15:36:23;10.75;7.75;7.25
55304;PMS7003;65692;51.378;19.824;2023-04-23T15:38:49;9.75;8.00;7.00
55304;PMS7003;65692;51.378;19.824;2023-04-23T15:41:15;8.75;6.25;4.75
55304;PMS7003;65692;51.378;19.824;2023-04-23T15:43:42;9.00;8.25;7.00
55304;PMS7003;65692;51.378;19.824;2023-04-23T15:46:08;8.75;8.75;7.50
55304;PMS7003;65692;51.378;19.824;2023-04-23T15:48:35;8.25;7.25;6.25
55304;PMS7003;65692;51.378;19.824;2023-04-23T15:51:01;7.75;7.75;6.75
55304;PMS7003;65692;51.378;19.824;2023-04-23T15:53:27;7.75;7.75;6.75
55304;PMS7003;65692;51.378;19.824;2023-04-23T15:55:54;12.25;7.75;7.00
55304;PMS7003;65692;51.378;19.824;2023-04-23T15:58:20;12.25;11.50;8.50
55304;PMS7003;65692;51.378;19.824;2023-04-23T16:00:47;9.50;9.50;8.75
55304;PMS7003;65692;51.378;19.824;2023-04-23T16:03:13;9.25;9.25;7.50
55304;PMS7003;65692;51.378;19.824;2023-04-23T16:05:40;5.75;4.25;3.25
55304;PMS7003;65692;51.378;19.824;2023-04-23T16:08:07;8.75;7.75;7.00
55304;PMS7003;65692;51.378;19.824;2023-04-23T16:10:34;8.00;8.00;7.25
55304;PMS7003;65692;51.378;19.824;2023-04-23T16:13:02;9.75;9.25;8.25
55304;PMS7003;65692;51.378;19.824;2023-04-23T16:15:29;9.00;9.00;7.50
55304;PMS7003;65692;51.378;19.824;2023-04-23T16:17:55;11.50;11.50;9.25
55304;PMS7003;65692;51.378;19.824;2023-04-23T16:20:24;14.25;13.75;10.00
55304;PMS7003;65692;51.378;19.824;2023-04-23T16:22:51;20.25;17.50;14.25
55304;PMS7003;65692;51.378;19.824;2023-04-23T16:25:17;12.50;12.50;10.25
55304;PMS7003;65692;51.378;19.824;2023-04-23T16:27:43;13.25;12.75;10.75
55304;PMS7003;65692;51.378;19.824;2023-04-23T16:30:14;14.50;13.25;11.00
55304;PMS7003;65692;51.378;19.824;2023-04-23T16:32:41;25.75;22.00;16.25
55304;PMS7003;65692;51.378;19.824;2023-04-23T16:35:07;16.00;15.00;11.50
55304;PMS7003;65692;51.378;19.824;2023-04-23T16:37:34;40.00;30.25;21.25
55304;PMS7003;65692;51.378;19.824;2023-04-23T16:40:01;12.25;11.25;10.25
55304;PMS7003;65692;51.378;19.824;2023-04-23T16:42:27;15.50;15.50;13.25
55304;PMS7003;65692;51.378;19.824;2023-04-23T16:44:54;15.25;13.25;10.50
55304;PMS7003;65692;51.378;19.824;2023-04-23T16:47:20;15.75;13.25;11.00
55304;PMS7003;65692;51.378;19.824;2023-04-23T16:49:46;17.00;15.25;11.50
55304;PMS7003;65692;51.378;19.824;2023-04-23T16:52:13;21.00;17.25;11.25